sensor_id;sensor_type;location;lat;lon;timestamp;P1;durP1;ratioP1;P2;durP2;ratioP2
20179;SDS011;10249;48.900;9.090;2023-11-18T00:01:26;1.60;;;1.60;;
20179;SDS011;10249;48.900;9.090;2023-11-18T00:03:57;1.70;;;1.70;;
20179;SDS011;10249;48.900;9.090;2023-11-18T00:06:25;1.90;;;1.90;;
20179;SDS011;10249;48.900;9.090;2023-11-18T00:08:53;1.60;;;1.60;;
20179;SDS011;10249;48.900;9.090;2023-11-18T00:11:21;1.60;;;1.60;;
20179;SDS011;10249;48.900;9.090;2023-11-18T00:13:49;1.60;;;1.60;;
20179;SDS011;10249;48.900;9.090;2023-11-18T00:16:16;1.70;;;1.70;;
20179;SDS011;10249;48.900;9.090;2023-11-18T00:18:45;1.80;;;1.80;;
20179;SDS011;10249;48.900;9.090;2023-11-18T00:21:13;1.70;;;1.70;;
20179;SDS011;10249;48.900;9.090;2023-11-18T00:23:40;1.80;;;1.80;;
20179;SDS011;10249;48.900;9.090;2023-11-18T00:26:07;2.10;;;2.00;;
20179;SDS011;10249;48.900;9.090;2023-11-18T00:28:35;2.10;;;2.00;;
20179;SDS011;10249;48.900;9.090;2023-11-18T00:31:02;2.20;;;2.10;;
20179;SDS011;10249;48.900;9.090;2023-11-18T00:33:30;2.33;;;2.23;;
20179;SDS011;10249;48.900;9.090;2023-11-18T00:35:59;2.20;;;2.10;;
20179;SDS011;10249;48.900;9.090;2023-11-18T00:38:27;2.20;;;2.10;;
20179;SDS011;10249;48.900;9.090;2023-11-18T00:40:55;2.10;;;2.00;;
20179;SDS011;10249;48.900;9.090;2023-11-18T00:43:22;2.20;;;2.10;;
20179;SDS011;10249;48.900;9.090;2023-11-18T00:45:49;2.10;;;2.00;;
20179;SDS011;10249;48.900;9.090;2023-11-18T00:48:17;2.23;;;2.13;;
20179;SDS011;10249;48.900;9.090;2023-11-18T00:50:44;2.20;;;2.10;;
20179;SDS011;10249;48.900;9.090;2023-11-18T00:53:13;2.40;;;2.30;;
20179;SDS011;10249;48.900;9.090;2023-11-18T00:55:40;2.30;;;2.20;;
20179;SDS011;10249;48.900;9.090;2023-11-18T00:58:07;2.17;;;2.07;;
20179;SDS011;10249;48.900;9.090;2023-11-18T01:00:34;2.10;;;2.00;;
20179;SDS011;10249;48.900;9.090;2023-11-18T01:03:01;2.00;;;1.90;;
20179;SDS011;10249;48.900;9.090;2023-11-18T01:05:28;2.30;;;2.20;;
20179;SDS011;10249;48.900;9.090;2023-11-18T01:07:56;2.10;;;2.00;;
20179;SDS011;10249;48.900;9.090;2023-11-18T01:10:25;2.20;;;2.10;;
20179;SDS011;10249;48.900;9.090;2023-11-18T01:12:52;2.20;;;2.10;;
20179;SDS011;10249;48.900;9.090;2023-11-18T01:15:21;2.20;;;2.10;;
20179;SDS011;10249;48.900;9.090;2023-11-18T01:17:49;2.13;;;2.03;;
20179;SDS011;10249;48.900;9.090;2023-11-18T01:20:16;2.30;;;2.20;;
20179;SDS011;10249;48.900;9.090;2023-11-18T01:22:47;2.10;;;2.00;;
20179;SDS011;10249;48.900;9.090;2023-11-18T01:25:14;2.10;;;2.00;;
20179;SDS011;10249;48.900;9.090;2023-11-18T01:27:43;2.03;;;1.93;;
20179;SDS011;10249;48.900;9.090;2023-11-18T01:30:12;2.03;;;1.93;;
20179;SDS011;10249;48.900;9.090;2023-11-18T01:32:39;1.90;;;1.90;;
20179;SDS011;10249;48.900;9.090;2023-11-18T01:35:07;2.00;;;1.90;;
20179;SDS011;10249;48.900;9.090;2023-11-18T01:37:35;2.30;;;2.20;;
20179;SDS011;10249;48.900;9.090;2023-11-18T01:40:03;2.30;;;2.20;;
20179;SDS011;10249;48.900;9.090;2023-11-18T01:42:32;2.30;;;2.20;;
20179;SDS011;10249;48.900;9.090;2023-11-18T01:45:00;2.40;;;2.30;;
20179;SDS011;10249;48.900;9.090;2023-11-18T01:47:28;2.70;;;2.60;;
20179;SDS011;10249;48.900;9.090;2023-11-18T01:49:57;2.50;;;2.40;;
20179;SDS011;10249;48.900;9.090;2023-11-18T01:52:25;2.63;;;2.53;;
20179;SDS011;10249;48.900;9.090;2023-11-18T01:54:52;3.00;;;2.90;;
20179;SDS011;10249;48.900;9.090;2023-11-18T01:57:21;3.20;;;3.10;;
20179;SDS011;10249;48.900;9.090;2023-11-18T01:59:48;2.80;;;2.70;;
20179;SDS011;10249;48.900;9.090;2023-11-18T02:02:16;3.03;;;2.93;;
20179;SDS011;10249;48.900;9.090;2023-11-18T02:04:46;2.93;;;2.83;;
20179;SDS011;10249;48.900;9.090;2023-11-18T02:07:13;3.20;;;3.10;;
20179;SDS011;10249;48.900;9.090;2023-11-18T02:09:40;3.10;;;3.00;;
20179;SDS011;10249;48.900;9.090;2023-11-18T02:12:09;3.00;;;2.90;;
20179;SDS011;10249;48.900;9.090;2023-11-18T02:14:38;3.17;;;3.07;;
20179;SDS011;10249;48.900;9.090;2023-11-18T02:17:06;3.03;;;2.93;;
20179;SDS011;10249;48.900;9.090;2023-11-18T02:19:35;3.20;;;3.10;;
20179;SDS011;10249;48.900;9.090;2023-11-18T02:22:04;3.17;;;3.07;;
20179;SDS011;10249;48.900;9.090;2023-11-18T02:24:33;3.00;;;2.90;;
20179;SDS011;10249;48.900;9.090;2023-11-18T02:27:03;3.10;;;3.00;;
20179;SDS011;10249;48.900;9.090;2023-11-18T02:29:32;2.90;;;2.80;;
20179;SDS011;10249;48.900;9.090;2023-11-18T02:32:03;2.90;;;2.80;;
20179;SDS011;10249;48.900;9.090;2023-11-18T02:34:33;2.80;;;2.70;;
20179;SDS011;10249;48.900;9.090;2023-11-18T02:37:04;2.70;;;2.60;;
20179;SDS011;10249;48.900;9.090;2023-11-18T02:39:33;2.60;;;2.50;;
20179;SDS011;10249;48.900;9.090;2023-11-18T02:42:05;2.70;;;2.60;;
20179;SDS011;10249;48.900;9.090;2023-11-18T02:44:35;2.57;;;2.47;;
20179;SDS011;10249;48.900;9.090;2023-11-18T02:47:03;2.40;;;2.30;;
20179;SDS011;10249;48.900;9.090;2023-11-18T02:49:31;2.40;;;2.30;;
20179;SDS011;10249;48.900;9.090;2023-11-18T02:51:58;2.70;;;2.60;;
20179;SDS011;10249;48.900;9.090;2023-11-18T02:54:25;2.90;;;2.80;;
20179;SDS011;10249;48.900;9.090;2023-11-18T02:56:53;2.63;;;2.53;;
20179;SDS011;10249;48.900;9.090;2023-11-18T02:59:22;2.80;;;2.70;;
20179;SDS011;10249;48.900;9.090;2023-11-18T03:01:53;2.90;;;2.80;;
20179;SDS011;10249;48.900;9.090;2023-11-18T03:04:21;2.90;;;2.80;;
20179;SDS011;10249;48.900;9.090;2023-11-18T03:06:49;3.10;;;3.00;;
20179;SDS011;10249;48.900;9.090;2023-11-18T03:09:16;3.03;;;2.93;;
20179;SDS011;10249;48.900;9.090;2023-11-18T03:11:44;3.00;;;2.90;;
20179;SDS011;10249;48.900;9.090;2023-11-18T03:14:11;3.87;;;3.67;;
20179;SDS011;10249;48.900;9.090;2023-11-18T03:16:39;3.00;;;2.90;;
20179;SDS011;10249;48.900;9.090;2023-11-18T03:19:06;2.70;;;2.60;;
20179;SDS011;10249;48.900;9.090;2023-11-18T03:21:34;3.03;;;2.93;;
20179;SDS011;10249;48.900;9.090;2023-11-18T03:24:04;3.03;;;2.93;;
20179;SDS011;10249;48.900;9.090;2023-11-18T03:26:31;3.10;;;3.00;;
20179;SDS011;10249;48.900;9.090;2023-11-18T03:28:59;3.10;;;3.00;;
20179;SDS011;10249;48.900;9.090;2023-11-18T03:31:26;3.20;;;3.10;;
20179;SDS011;10249;48.900;9.090;2023-11-18T03:33:55;3.30;;;3.20;;
20179;SDS011;10249;48.900;9.090;2023-11-18T03:36:22;3.20;;;3.10;;
20179;SDS011;10249;48.900;9.090;2023-11-18T03:38:49;3.20;;;3.10;;
20179;SDS011;10249;48.900;9.090;2023-11-18T03:41:17;3.07;;;2.97;;
20179;SDS011;10249;48.900;9.090;2023-11-18T03:43:44;3.00;;;2.90;;
20179;SDS011;10249;48.900;9.090;2023-11-18T03:46:13;3.00;;;2.90;;
20179;SDS011;10249;48.900;9.090;2023-11-18T03:48:40;3.10;;;3.00;;
20179;SDS011;10249;48.900;9.090;2023-11-18T03:51:10;3.40;;;3.30;;
20179;SDS011;10249;48.900;9.090;2023-11-18T03:53:37;3.40;;;3.30;;
20179;SDS011;10249;48.900;9.090;2023-11-18T03:56:06;3.40;;;3.30;;
20179;SDS011;10249;48.900;9.090;2023-11-18T03:58:33;4.43;;;4.23;;
20179;SDS011;10249;48.900;9.090;2023-11-18T04:01:00;3.10;;;3.00;;
20179;SDS011;10249;48.900;9.090;2023-11-18T04:03:28;3.30;;;3.20;;
20179;SDS011;10249;48.900;9.090;2023-11-18T04:05:56;3.30;;;3.20;;
20179;SDS011;10249;48.900;9.090;2023-11-18T04:08:25;3.00;;;2.90;;
20179;SDS011;10249;48.900;9.090;2023-11-18T04:10:53;3.43;;;3.33;;
20179;SDS011;10249;48.900;9.090;2023-11-18T04:13:20;3.23;;;3.13;;
20179;SDS011;10249;48.900;9.090;2023-11-18T04:15:47;3.30;;;3.20;;
20179;SDS011;10249;48.900;9.090;2023-11-18T04:18:14;3.50;;;3.40;;
20179;SDS011;10249;48.900;9.090;2023-11-18T04:20:41;3.40;;;3.30;;
20179;SDS011;10249;48.900;9.090;2023-11-18T04:23:08;3.50;;;3.40;;
20179;SDS011;10249;48.900;9.090;2023-11-18T04:25:38;3.30;;;3.20;;
20179;SDS011;10249;48.900;9.090;2023-11-18T04:28:06;3.50;;;3.40;;
20179;SDS011;10249;48.900;9.090;2023-11-18T04:30:33;3.70;;;3.60;;
20179;SDS011;10249;48.900;9.090;2023-11-18T04:33:00;3.50;;;3.40;;
20179;SDS011;10249;48.900;9.090;2023-11-18T04:35:27;3.60;;;3.50;;
20179;SDS011;10249;48.900;9.090;2023-11-18T04:37:55;3.20;;;3.10;;
20179;SDS011;10249;48.900;9.090;2023-11-18T04:40:22;3.50;;;3.40;;
20179;SDS011;10249;48.900;9.090;2023-11-18T04:42:51;3.60;;;3.50;;
20179;SDS011;10249;48.900;9.090;2023-11-18T04:45:18;3.60;;;3.50;;
20179;SDS011;10249;48.900;9.090;2023-11-18T04:47:45;3.80;;;3.70;;
20179;SDS011;10249;48.900;9.090;2023-11-18T04:50:14;3.80;;;3.70;;
20179;SDS011;10249;48.900;9.090;2023-11-18T04:52:41;4.33;;;4.23;;
20179;SDS011;10249;48.900;9.090;2023-11-18T04:55:08;3.80;;;3.70;;
20179;SDS011;10249;48.900;9.090;2023-11-18T04:57:38;3.50;;;3.40;;
20179;SDS011;10249;48.900;9.090;2023-11-18T05:00:07;3.70;;;3.60;;
20179;SDS011;10249;48.900;9.090;2023-11-18T05:02:36;3.30;;;3.20;;
20179;SDS011;10249;48.900;9.090;2023-11-18T05:05:03;3.10;;;3.00;;
20179;SDS011;10249;48.900;9.090;2023-11-18T05:07:31;3.03;;;2.93;;
20179;SDS011;10249;48.900;9.090;2023-11-18T05:09:59;3.43;;;3.33;;
20179;SDS011;10249;48.900;9.090;2023-11-18T05:12:27;3.23;;;3.13;;
20179;SDS011;10249;48.900;9.090;2023-11-18T05:14:55;3.20;;;3.10;;
20179;SDS011;10249;48.900;9.090;2023-11-18T05:17:23;3.10;;;3.00;;
20179;SDS011;10249;48.900;9.090;2023-11-18T05:19:51;3.20;;;3.10;;
20179;SDS011;10249;48.900;9.090;2023-11-18T05:22:18;3.20;;;3.10;;
20179;SDS011;10249;48.900;9.090;2023-11-18T05:24:46;3.20;;;3.10;;
20179;SDS011;10249;48.900;9.090;2023-11-18T05:27:14;3.10;;;3.00;;
20179;SDS011;10249;48.900;9.090;2023-11-18T05:29:42;3.10;;;3.00;;
20179;SDS011;10249;48.900;9.090;2023-11-18T05:32:12;3.27;;;3.17;;
20179;SDS011;10249;48.900;9.090;2023-11-18T05:34:41;3.50;;;3.40;;
20179;SDS011;10249;48.900;9.090;2023-11-18T05:37:08;3.10;;;3.00;;
20179;SDS011;10249;48.900;9.090;2023-11-18T05:39:36;3.23;;;3.13;;
20179;SDS011;10249;48.900;9.090;2023-11-18T05:42:08;3.63;;;3.53;;
20179;SDS011;10249;48.900;9.090;2023-11-18T05:44:35;3.50;;;3.40;;
20179;SDS011;10249;48.900;9.090;2023-11-18T05:47:04;3.40;;;3.30;;
20179;SDS011;10249;48.900;9.090;2023-11-18T05:49:32;3.20;;;3.10;;
20179;SDS011;10249;48.900;9.090;2023-11-18T05:52:00;3.10;;;3.00;;
20179;SDS011;10249;48.900;9.090;2023-11-18T05:54:27;3.20;;;3.10;;
20179;SDS011;10249;48.900;9.090;2023-11-18T05:56:55;3.30;;;3.20;;
20179;SDS011;10249;48.900;9.090;2023-11-18T05:59:24;3.40;;;3.30;;
20179;SDS011;10249;48.900;9.090;2023-11-18T06:01:51;3.60;;;3.50;;
20179;SDS011;10249;48.900;9.090;2023-11-18T06:04:18;3.30;;;3.20;;
20179;SDS011;10249;48.900;9.090;2023-11-18T06:06:46;3.20;;;3.10;;
20179;SDS011;10249;48.900;9.090;2023-11-18T06:09:15;3.40;;;3.30;;
20179;SDS011;10249;48.900;9.090;2023-11-18T06:11:46;3.40;;;3.30;;
20179;SDS011;10249;48.900;9.090;2023-11-18T06:14:14;3.50;;;3.40;;
20179;SDS011;10249;48.900;9.090;2023-11-18T06:16:42;3.60;;;3.50;;
20179;SDS011;10249;48.900;9.090;2023-11-18T06:19:10;3.70;;;3.60;;
20179;SDS011;10249;48.900;9.090;2023-11-18T06:21:37;3.67;;;3.57;;
20179;SDS011;10249;48.900;9.090;2023-11-18T06:24:05;3.53;;;3.43;;
20179;SDS011;10249;48.900;9.090;2023-11-18T06:26:33;3.27;;;3.17;;
20179;SDS011;10249;48.900;9.090;2023-11-18T06:29:02;3.53;;;3.43;;
20179;SDS011;10249;48.900;9.090;2023-11-18T06:31:29;3.03;;;2.93;;
20179;SDS011;10249;48.900;9.090;2023-11-18T06:33:57;2.90;;;2.80;;
20179;SDS011;10249;48.900;9.090;2023-11-18T06:36:24;2.90;;;2.80;;
20179;SDS011;10249;48.900;9.090;2023-11-18T06:38:52;2.80;;;2.70;;
20179;SDS011;10249;48.900;9.090;2023-11-18T06:41:19;3.10;;;3.00;;
20179;SDS011;10249;48.900;9.090;2023-11-18T06:43:49;2.60;;;2.50;;
20179;SDS011;10249;48.900;9.090;2023-11-18T06:46:26;2.50;;;2.40;;
20179;SDS011;10249;48.900;9.090;2023-11-18T06:48:56;2.70;;;2.60;;
20179;SDS011;10249;48.900;9.090;2023-11-18T06:51:24;2.60;;;2.50;;
20179;SDS011;10249;48.900;9.090;2023-11-18T06:53:52;2.60;;;2.50;;
20179;SDS011;10249;48.900;9.090;2023-11-18T06:56:20;2.60;;;2.50;;
20179;SDS011;10249;48.900;9.090;2023-11-18T06:58:47;2.90;;;2.80;;
20179;SDS011;10249;48.900;9.090;2023-11-18T07:01:15;2.80;;;2.70;;
20179;SDS011;10249;48.900;9.090;2023-11-18T07:03:43;2.60;;;2.50;;
20179;SDS011;10249;48.900;9.090;2023-11-18T07:06:10;2.50;;;2.40;;
20179;SDS011;10249;48.900;9.090;2023-11-18T07:08:39;2.67;;;2.57;;
20179;SDS011;10249;48.900;9.090;2023-11-18T07:11:06;2.80;;;2.70;;
20179;SDS011;10249;48.900;9.090;2023-11-18T07:13:33;3.00;;;2.90;;
20179;SDS011;10249;48.900;9.090;2023-11-18T07:16:00;3.10;;;3.00;;
20179;SDS011;10249;48.900;9.090;2023-11-18T07:18:30;3.23;;;3.13;;
20179;SDS011;10249;48.900;9.090;2023-11-18T07:20:58;3.20;;;3.10;;
20179;SDS011;10249;48.900;9.090;2023-11-18T07:23:25;3.10;;;3.00;;
20179;SDS011;10249;48.900;9.090;2023-11-18T07:25:53;2.90;;;2.80;;
20179;SDS011;10249;48.900;9.090;2023-11-18T07:28:21;3.00;;;2.90;;
20179;SDS011;10249;48.900;9.090;2023-11-18T07:30:48;3.60;;;3.50;;
20179;SDS011;10249;48.900;9.090;2023-11-18T07:33:16;2.90;;;2.80;;
20179;SDS011;10249;48.900;9.090;2023-11-18T07:35:45;3.27;;;3.17;;
20179;SDS011;10249;48.900;9.090;2023-11-18T07:38:13;3.90;;;3.80;;
20179;SDS011;10249;48.900;9.090;2023-11-18T07:40:40;4.00;;;3.90;;
20179;SDS011;10249;48.900;9.090;2023-11-18T07:43:10;4.00;;;3.90;;
20179;SDS011;10249;48.900;9.090;2023-11-18T07:45:38;4.00;;;3.90;;
20179;SDS011;10249;48.900;9.090;2023-11-18T07:48:07;4.10;;;4.00;;
20179;SDS011;10249;48.900;9.090;2023-11-18T07:50:35;3.90;;;3.80;;
20179;SDS011;10249;48.900;9.090;2023-11-18T07:53:03;3.90;;;3.80;;
20179;SDS011;10249;48.900;9.090;2023-11-18T07:55:31;4.10;;;4.00;;
20179;SDS011;10249;48.900;9.090;2023-11-18T07:57:59;4.10;;;4.00;;
20179;SDS011;10249;48.900;9.090;2023-11-18T08:00:26;4.40;;;4.30;;
20179;SDS011;10249;48.900;9.090;2023-11-18T08:02:56;4.53;;;4.43;;
20179;SDS011;10249;48.900;9.090;2023-11-18T08:05:25;4.70;;;4.60;;
20179;SDS011;10249;48.900;9.090;2023-11-18T08:07:53;4.90;;;4.80;;
20179;SDS011;10249;48.900;9.090;2023-11-18T08:10:22;5.03;;;4.93;;
20179;SDS011;10249;48.900;9.090;2023-11-18T08:12:50;5.60;;;5.40;;
20179;SDS011;10249;48.900;9.090;2023-11-18T08:15:19;6.47;;;6.27;;
20179;SDS011;10249;48.900;9.090;2023-11-18T08:17:46;6.50;;;6.30;;
20179;SDS011;10249;48.900;9.090;2023-11-18T08:20:14;8.03;;;7.73;;
20179;SDS011;10249;48.900;9.090;2023-11-18T08:22:41;8.67;;;8.37;;
20179;SDS011;10249;48.900;9.090;2023-11-18T08:25:09;8.40;;;8.10;;
20179;SDS011;10249;48.900;9.090;2023-11-18T08:27:39;7.80;;;7.60;;
20179;SDS011;10249;48.900;9.090;2023-11-18T08:30:07;7.90;;;7.70;;
20179;SDS011;10249;48.900;9.090;2023-11-18T08:32:36;7.20;;;7.00;;
20179;SDS011;10249;48.900;9.090;2023-11-18T08:35:04;7.10;;;6.90;;
20179;SDS011;10249;48.900;9.090;2023-11-18T08:37:32;6.80;;;6.60;;
20179;SDS011;10249;48.900;9.090;2023-11-18T08:40:01;6.60;;;6.40;;
20179;SDS011;10249;48.900;9.090;2023-11-18T08:42:29;7.33;;;7.03;;
20179;SDS011;10249;48.900;9.090;2023-11-18T08:44:58;6.40;;;6.20;;
20179;SDS011;10249;48.900;9.090;2023-11-18T08:47:26;6.73;;;6.53;;
20179;SDS011;10249;48.900;9.090;2023-11-18T08:49:54;6.33;;;6.13;;
20179;SDS011;10249;48.900;9.090;2023-11-18T08:52:21;6.57;;;6.37;;
20179;SDS011;10249;48.900;9.090;2023-11-18T08:54:50;6.70;;;6.50;;
20179;SDS011;10249;48.900;9.090;2023-11-18T08:57:35;6.67;;;6.47;;
20179;SDS011;10249;48.900;9.090;2023-11-18T09:00:15;6.80;;;6.60;;
20179;SDS011;10249;48.900;9.090;2023-11-18T09:03:04;7.17;;;6.97;;
20179;SDS011;10249;48.900;9.090;2023-11-18T09:05:32;6.90;;;6.70;;
20179;SDS011;10249;48.900;9.090;2023-11-18T09:08:00;7.00;;;6.80;;
20179;SDS011;10249;48.900;9.090;2023-11-18T09:10:31;6.90;;;6.70;;
20179;SDS011;10249;48.900;9.090;2023-11-18T09:12:58;6.93;;;6.73;;
20179;SDS011;10249;48.900;9.090;2023-11-18T09:15:27;6.90;;;6.70;;
20179;SDS011;10249;48.900;9.090;2023-11-18T09:17:55;7.10;;;6.90;;
20179;SDS011;10249;48.900;9.090;2023-11-18T09:20:24;7.30;;;7.10;;
20179;SDS011;10249;48.900;9.090;2023-11-18T09:22:52;7.43;;;7.23;;
20179;SDS011;10249;48.900;9.090;2023-11-18T09:25:20;7.20;;;7.00;;
20179;SDS011;10249;48.900;9.090;2023-11-18T09:27:48;7.10;;;6.90;;
20179;SDS011;10249;48.900;9.090;2023-11-18T09:30:15;7.80;;;7.60;;
20179;SDS011;10249;48.900;9.090;2023-11-18T09:32:43;8.40;;;8.10;;
20179;SDS011;10249;48.900;9.090;2023-11-18T09:35:12;7.20;;;7.00;;
20179;SDS011;10249;48.900;9.090;2023-11-18T09:37:40;7.60;;;7.40;;
20179;SDS011;10249;48.900;9.090;2023-11-18T09:40:08;7.50;;;7.30;;
20179;SDS011;10249;48.900;9.090;2023-11-18T09:42:37;7.30;;;7.10;;
20179;SDS011;10249;48.900;9.090;2023-11-18T09:45:05;7.87;;;7.67;;
20179;SDS011;10249;48.900;9.090;2023-11-18T09:47:38;7.73;;;7.53;;
20179;SDS011;10249;48.900;9.090;2023-11-18T09:50:16;8.00;;;7.80;;
20179;SDS011;10249;48.900;9.090;2023-11-18T09:52:47;7.80;;;7.60;;
20179;SDS011;10249;48.900;9.090;2023-11-18T09:55:19;7.60;;;7.40;;
20179;SDS011;10249;48.900;9.090;2023-11-18T09:57:51;8.00;;;7.80;;
20179;SDS011;10249;48.900;9.090;2023-11-18T10:00:22;8.43;;;8.13;;
20179;SDS011;10249;48.900;9.090;2023-11-18T10:02:52;9.10;;;8.80;;
20179;SDS011;10249;48.900;9.090;2023-11-18T10:05:22;8.90;;;8.60;;
20179;SDS011;10249;48.900;9.090;2023-11-18T10:07:52;8.80;;;8.50;;
20179;SDS011;10249;48.900;9.090;2023-11-18T10:10:19;8.67;;;8.37;;
20179;SDS011;10249;48.900;9.090;2023-11-18T10:12:47;8.90;;;8.60;;
20179;SDS011;10249;48.900;9.090;2023-11-18T10:15:17;8.70;;;8.40;;
20179;SDS011;10249;48.900;9.090;2023-11-18T10:17:48;8.73;;;8.43;;
20179;SDS011;10249;48.900;9.090;2023-11-18T10:20:23;8.43;;;8.13;;
20179;SDS011;10249;48.900;9.090;2023-11-18T10:23:10;8.87;;;8.57;;
20179;SDS011;10249;48.900;9.090;2023-11-18T10:25:37;9.10;;;8.80;;
20179;SDS011;10249;48.900;9.090;2023-11-18T10:28:06;9.17;;;8.87;;
20179;SDS011;10249;48.900;9.090;2023-11-18T10:30:42;9.20;;;8.90;;
20179;SDS011;10249;48.900;9.090;2023-11-18T10:33:12;9.30;;;9.00;;
20179;SDS011;10249;48.900;9.090;2023-11-18T10:35:49;9.30;;;9.00;;
20179;SDS011;10249;48.900;9.090;2023-11-18T10:38:20;9.07;;;8.77;;
20179;SDS011;10249;48.900;9.090;2023-11-18T10:40:50;9.00;;;8.70;;
20179;SDS011;10249;48.900;9.090;2023-11-18T10:43:20;8.80;;;8.50;;
20179;SDS011;10249;48.900;9.090;2023-11-18T10:45:49;8.83;;;8.53;;
20179;SDS011;10249;48.900;9.090;2023-11-18T10:48:17;9.03;;;8.73;;
20179;SDS011;10249;48.900;9.090;2023-11-18T10:50:46;9.00;;;8.70;;
20179;SDS011;10249;48.900;9.090;2023-11-18T10:53:16;9.20;;;8.90;;
20179;SDS011;10249;48.900;9.090;2023-11-18T10:55:44;9.00;;;8.70;;
20179;SDS011;10249;48.900;9.090;2023-11-18T10:58:11;9.10;;;8.80;;
20179;SDS011;10249;48.900;9.090;2023-11-18T11:00:45;9.60;;;9.30;;
20179;SDS011;10249;48.900;9.090;2023-11-18T11:03:13;9.00;;;8.70;;
20179;SDS011;10249;48.900;9.090;2023-11-18T11:05:41;9.23;;;8.93;;
20179;SDS011;10249;48.900;9.090;2023-11-18T11:08:09;9.47;;;9.03;;
20179;SDS011;10249;48.900;9.090;2023-11-18T11:10:39;9.17;;;8.87;;
20179;SDS011;10249;48.900;9.090;2023-11-18T11:13:07;9.80;;;9.50;;
20179;SDS011;10249;48.900;9.090;2023-11-18T11:15:36;9.67;;;9.37;;
20179;SDS011;10249;48.900;9.090;2023-11-18T11:18:08;9.67;;;9.37;;
20179;SDS011;10249;48.900;9.090;2023-11-18T11:20:41;10.00;;;9.70;;
20179;SDS011;10249;48.900;9.090;2023-11-18T11:23:11;10.10;;;9.80;;
20179;SDS011;10249;48.900;9.090;2023-11-18T11:25:46;9.87;;;9.57;;
20179;SDS011;10249;48.900;9.090;2023-11-18T11:28:19;9.93;;;9.63;;
20179;SDS011;10249;48.900;9.090;2023-11-18T11:30:50;10.07;;;9.77;;
20179;SDS011;10249;48.900;9.090;2023-11-18T11:33:20;10.27;;;9.97;;
20179;SDS011;10249;48.900;9.090;2023-11-18T11:35:53;10.20;;;9.90;;
20179;SDS011;10249;48.900;9.090;2023-11-18T11:38:22;10.30;;;10.00;;
20179;SDS011;10249;48.900;9.090;2023-11-18T11:40:50;10.50;;;10.10;;
20179;SDS011;10249;48.900;9.090;2023-11-18T11:43:20;10.30;;;9.90;;
20179;SDS011;10249;48.900;9.090;2023-11-18T11:45:47;10.30;;;10.00;;
20179;SDS011;10249;48.900;9.090;2023-11-18T11:48:16;9.87;;;9.57;;
20179;SDS011;10249;48.900;9.090;2023-11-18T11:53:40;10.60;;;10.20;;
20179;SDS011;10249;48.900;9.090;2023-11-18T11:56:12;10.10;;;9.80;;
20179;SDS011;10249;48.900;9.090;2023-11-18T11:58:46;9.97;;;9.67;;
20179;SDS011;10249;48.900;9.090;2023-11-18T12:01:21;10.10;;;9.80;;
20179;SDS011;10249;48.900;9.090;2023-11-18T12:03:50;10.20;;;9.90;;
20179;SDS011;10249;48.900;9.090;2023-11-18T12:06:22;9.90;;;9.60;;
20179;SDS011;10249;48.900;9.090;2023-11-18T12:08:51;10.53;;;10.13;;
20179;SDS011;10249;48.900;9.090;2023-11-18T12:11:19;10.40;;;10.00;;
20179;SDS011;10249;48.900;9.090;2023-11-18T12:14:00;10.17;;;9.83;;
20179;SDS011;10249;48.900;9.090;2023-11-18T12:19:29;9.90;;;9.60;;
20179;SDS011;10249;48.900;9.090;2023-11-18T12:21:57;9.90;;;9.60;;
20179;SDS011;10249;48.900;9.090;2023-11-18T12:24:26;10.77;;;10.37;;
20179;SDS011;10249;48.900;9.090;2023-11-18T12:26:56;10.00;;;9.70;;
20179;SDS011;10249;48.900;9.090;2023-11-18T12:29:32;9.80;;;9.50;;
20179;SDS011;10249;48.900;9.090;2023-11-18T12:32:00;10.27;;;9.97;;
20179;SDS011;10249;48.900;9.090;2023-11-18T12:37:14;10.20;;;9.90;;
20179;SDS011;10249;48.900;9.090;2023-11-18T12:39:53;10.10;;;9.80;;
20179;SDS011;10249;48.900;9.090;2023-11-18T12:45:22;10.13;;;9.83;;
20179;SDS011;10249;48.900;9.090;2023-11-18T12:47:55;10.00;;;9.70;;
20179;SDS011;10249;48.900;9.090;2023-11-18T12:50:23;10.17;;;9.87;;
20179;SDS011;10249;48.900;9.090;2023-11-18T12:52:53;10.20;;;9.90;;
20179;SDS011;10249;48.900;9.090;2023-11-18T12:55:20;10.03;;;9.73;;
20179;SDS011;10249;48.900;9.090;2023-11-18T12:57:48;10.20;;;9.90;;
20179;SDS011;10249;48.900;9.090;2023-11-18T13:00:16;10.10;;;9.80;;
20179;SDS011;10249;48.900;9.090;2023-11-18T13:02:53;9.90;;;9.60;;
20179;SDS011;10249;48.900;9.090;2023-11-18T13:05:22;9.43;;;9.13;;
20179;SDS011;10249;48.900;9.090;2023-11-18T13:07:54;9.70;;;9.40;;
20179;SDS011;10249;48.900;9.090;2023-11-18T13:10:22;9.73;;;9.43;;
20179;SDS011;10249;48.900;9.090;2023-11-18T13:12:52;9.57;;;9.27;;
20179;SDS011;10249;48.900;9.090;2023-11-18T13:15:19;9.90;;;9.60;;
20179;SDS011;10249;48.900;9.090;2023-11-18T13:18:00;9.97;;;9.67;;
20179;SDS011;10249;48.900;9.090;2023-11-18T13:20:28;9.67;;;9.37;;
20179;SDS011;10249;48.900;9.090;2023-11-18T13:22:58;10.10;;;9.80;;
20179;SDS011;10249;48.900;9.090;2023-11-18T13:25:26;9.83;;;9.53;;
20179;SDS011;10249;48.900;9.090;2023-11-18T13:27:53;10.00;;;9.70;;
20179;SDS011;10249;48.900;9.090;2023-11-18T13:30:20;9.70;;;9.40;;
20179;SDS011;10249;48.900;9.090;2023-11-18T13:32:47;9.70;;;9.40;;
20179;SDS011;10249;48.900;9.090;2023-11-18T13:35:17;9.53;;;9.23;;
20179;SDS011;10249;48.900;9.090;2023-11-18T13:37:48;10.10;;;9.70;;
20179;SDS011;10249;48.900;9.090;2023-11-18T13:40:18;9.70;;;9.40;;
20179;SDS011;10249;48.900;9.090;2023-11-18T13:42:45;9.87;;;9.57;;
20179;SDS011;10249;48.900;9.090;2023-11-18T13:45:13;10.03;;;9.73;;
20179;SDS011;10249;48.900;9.090;2023-11-18T13:47:55;9.97;;;9.67;;
20179;SDS011;10249;48.900;9.090;2023-11-18T13:50:24;10.20;;;9.90;;
20179;SDS011;10249;48.900;9.090;2023-11-18T13:52:52;10.17;;;9.87;;
20179;SDS011;10249;48.900;9.090;2023-11-18T13:55:19;10.10;;;9.80;;
20179;SDS011;10249;48.900;9.090;2023-11-18T13:57:52;10.20;;;9.90;;
20179;SDS011;10249;48.900;9.090;2023-11-18T14:00:22;10.10;;;9.80;;
20179;SDS011;10249;48.900;9.090;2023-11-18T14:02:51;10.10;;;9.80;;
20179;SDS011;10249;48.900;9.090;2023-11-18T14:05:20;10.20;;;9.90;;
20179;SDS011;10249;48.900;9.090;2023-11-18T14:07:51;10.40;;;10.00;;
20179;SDS011;10249;48.900;9.090;2023-11-18T14:10:21;10.37;;;9.97;;
20179;SDS011;10249;48.900;9.090;2023-11-18T14:13:02;10.40;;;10.00;;
20179;SDS011;10249;48.900;9.090;2023-11-18T14:15:30;10.40;;;10.00;;
20179;SDS011;10249;48.900;9.090;2023-11-18T14:18:00;10.37;;;9.97;;
20179;SDS011;10249;48.900;9.090;2023-11-18T14:20:27;10.53;;;10.17;;
20179;SDS011;10249;48.900;9.090;2023-11-18T14:22:57;10.30;;;9.90;;
20179;SDS011;10249;48.900;9.090;2023-11-18T14:25:24;10.30;;;9.90;;
20179;SDS011;10249;48.900;9.090;2023-11-18T14:27:52;9.97;;;9.67;;
20179;SDS011;10249;48.900;9.090;2023-11-18T14:30:19;10.10;;;9.80;;
20179;SDS011;10249;48.900;9.090;2023-11-18T14:32:49;10.33;;;9.97;;
20179;SDS011;10249;48.900;9.090;2023-11-18T14:35:16;10.20;;;9.90;;
20179;SDS011;10249;48.900;9.090;2023-11-18T14:37:43;10.27;;;9.93;;
20179;SDS011;10249;48.900;9.090;2023-11-18T14:40:12;10.17;;;9.87;;
20179;SDS011;10249;48.900;9.090;2023-11-18T14:42:41;10.20;;;9.90;;
20179;SDS011;10249;48.900;9.090;2023-11-18T14:45:09;10.13;;;9.83;;
20179;SDS011;10249;48.900;9.090;2023-11-18T14:47:37;10.10;;;9.80;;
20179;SDS011;10249;48.900;9.090;2023-11-18T14:50:05;10.20;;;9.90;;
20179;SDS011;10249;48.900;9.090;2023-11-18T14:52:40;10.00;;;9.70;;
20179;SDS011;10249;48.900;9.090;2023-11-18T14:55:08;9.90;;;9.60;;
20179;SDS011;10249;48.900;9.090;2023-11-18T14:57:39;10.10;;;9.80;;
20179;SDS011;10249;48.900;9.090;2023-11-18T15:00:06;10.37;;;9.97;;
20179;SDS011;10249;48.900;9.090;2023-11-18T15:02:34;9.70;;;9.40;;
20179;SDS011;10249;48.900;9.090;2023-11-18T15:05:02;9.70;;;9.40;;
20179;SDS011;10249;48.900;9.090;2023-11-18T15:07:29;9.70;;;9.40;;